sensor_id;sensor_type;location;lat;lon;timestamp;P1;durP1;ratioP1;P2;durP2;ratioP2
21215;SDS011;10765;50.954;5.322;2023-04-25T00:01:57;12.77;;;5.90;;
21215;SDS011;10765;50.954;5.322;2023-04-25T00:04:24;15.77;;;5.73;;
21215;SDS011;10765;50.954;5.322;2023-04-25T00:06:52;14.77;;;5.77;;
21215;SDS011;10765;50.954;5.322;2023-04-25T00:09:21;17.13;;;5.80;;
21215;SDS011;10765;50.954;5.322;2023-04-25T00:11:48;12.87;;;5.00;;
21215;SDS011;10765;50.954;5.322;2023-04-25T00:14:14;15.93;;;5.33;;
21215;SDS011;10765;50.954;5.322;2023-04-25T00:16:41;14.70;;;5.00;;
21215;SDS011;10765;50.954;5.322;2023-04-25T00:19:09;15.27;;;5.60;;
21215;SDS011;10765;50.954;5.322;2023-04-25T00:21:36;10.47;;;4.83;;
21215;SDS011;10765;50.954;5.322;2023-04-25T00:24:05;10.60;;;5.00;;
21215;SDS011;10765;50.954;5.322;2023-04-25T00:26:34;10.10;;;4.60;;
21215;SDS011;10765;50.954;5.322;2023-04-25T00:29:01;12.50;;;5.63;;
21215;SDS011;10765;50.954;5.322;2023-04-25T00:31:28;12.70;;;5.13;;
21215;SDS011;10765;50.954;5.322;2023-04-25T00:33:56;10.67;;;4.97;;
21215;SDS011;10765;50.954;5.322;2023-04-25T00:36:22;12.00;;;5.33;;
21215;SDS011;10765;50.954;5.322;2023-04-25T00:38:49;12.03;;;5.20;;
21215;SDS011;10765;50.954;5.322;2023-04-25T00:41:16;14.63;;;5.47;;
21215;SDS011;10765;50.954;5.322;2023-04-25T00:43:46;10.20;;;4.93;;
21215;SDS011;10765;50.954;5.322;2023-04-25T00:46:14;14.53;;;5.60;;
21215;SDS011;10765;50.954;5.322;2023-04-25T00:48:41;12.27;;;4.90;;
21215;SDS011;10765;50.954;5.322;2023-04-25T00:51:08;11.70;;;5.20;;
21215;SDS011;10765;50.954;5.322;2023-04-25T00:53:40;11.63;;;4.90;;
21215;SDS011;10765;50.954;5.322;2023-04-25T00:56:07;12.43;;;4.90;;
21215;SDS011;10765;50.954;5.322;2023-04-25T00:58:34;13.07;;;4.97;;
21215;SDS011;10765;50.954;5.322;2023-04-25T01:01:03;17.30;;;5.60;;
21215;SDS011;10765;50.954;5.322;2023-04-25T01:03:31;13.20;;;5.40;;
21215;SDS011;10765;50.954;5.322;2023-04-25T01:06:00;13.80;;;5.53;;
21215;SDS011;10765;50.954;5.322;2023-04-25T01:08:28;8.80;;;4.60;;
21215;SDS011;10765;50.954;5.322;2023-04-25T01:10:55;12.00;;;4.87;;
21215;SDS011;10765;50.954;5.322;2023-04-25T01:13:22;12.60;;;5.63;;
21215;SDS011;10765;50.954;5.322;2023-04-25T01:15:49;11.57;;;5.00;;
21215;SDS011;10765;50.954;5.322;2023-04-25T01:18:17;11.20;;;5.03;;
21215;SDS011;10765;50.954;5.322;2023-04-25T01:20:48;14.13;;;4.87;;
21215;SDS011;10765;50.954;5.322;2023-04-25T01:23:18;12.13;;;5.13;;
21215;SDS011;10765;50.954;5.322;2023-04-25T01:25:45;9.73;;;5.40;;
21215;SDS011;10765;50.954;5.322;2023-04-25T01:28:14;11.97;;;5.70;;
21215;SDS011;10765;50.954;5.322;2023-04-25T01:30:41;14.43;;;5.53;;
21215;SDS011;10765;50.954;5.322;2023-04-25T01:33:08;13.80;;;4.90;;
21215;SDS011;10765;50.954;5.322;2023-04-25T01:35:35;10.07;;;5.23;;
21215;SDS011;10765;50.954;5.322;2023-04-25T01:38:02;16.10;;;5.43;;
21215;SDS011;10765;50.954;5.322;2023-04-25T01:40:30;17.10;;;5.40;;
21215;SDS011;10765;50.954;5.322;2023-04-25T01:42:59;17.47;;;6.10;;
21215;SDS011;10765;50.954;5.322;2023-04-25T01:45:26;19.17;;;5.57;;
21215;SDS011;10765;50.954;5.322;2023-04-25T01:47:53;11.30;;;4.77;;
21215;SDS011;10765;50.954;5.322;2023-04-25T01:50:20;15.93;;;6.03;;
21215;SDS011;10765;50.954;5.322;2023-04-25T01:52:47;15.50;;;5.70;;
21215;SDS011;10765;50.954;5.322;2023-04-25T01:55:14;12.97;;;5.70;;
21215;SDS011;10765;50.954;5.322;2023-04-25T01:57:42;12.77;;;5.23;;
21215;SDS011;10765;50.954;5.322;2023-04-25T02:00:09;12.73;;;5.00;;
21215;SDS011;10765;50.954;5.322;2023-04-25T02:02:37;12.93;;;5.50;;
21215;SDS011;10765;50.954;5.322;2023-04-25T02:05:04;11.00;;;5.30;;
21215;SDS011;10765;50.954;5.322;2023-04-25T02:07:32;9.20;;;5.00;;
21215;SDS011;10765;50.954;5.322;2023-04-25T02:09:59;14.77;;;5.43;;
21215;SDS011;10765;50.954;5.322;2023-04-25T02:12:26;14.60;;;5.73;;
21215;SDS011;10765;50.954;5.322;2023-04-25T02:14:55;9.27;;;5.13;;
21215;SDS011;10765;50.954;5.322;2023-04-25T02:17:22;14.20;;;5.23;;
21215;SDS011;10765;50.954;5.322;2023-04-25T02:19:49;15.63;;;5.63;;
21215;SDS011;10765;50.954;5.322;2023-04-25T02:22:15;14.60;;;5.60;;
21215;SDS011;10765;50.954;5.322;2023-04-25T02:24:42;12.07;;;4.97;;
21215;SDS011;10765;50.954;5.322;2023-04-25T02:27:09;12.47;;;6.40;;
21215;SDS011;10765;50.954;5.322;2023-04-25T02:29:36;10.93;;;5.27;;
21215;SDS011;10765;50.954;5.322;2023-04-25T02:32:04;12.37;;;5.17;;
21215;SDS011;10765;50.954;5.322;2023-04-25T02:34:31;14.80;;;5.90;;
21215;SDS011;10765;50.954;5.322;2023-04-25T02:36:58;15.20;;;6.47;;
21215;SDS011;10765;50.954;5.322;2023-04-25T02:39:25;12.93;;;5.50;;
21215;SDS011;10765;50.954;5.322;2023-04-25T02:41:52;11.90;;;5.43;;
21215;SDS011;10765;50.954;5.322;2023-04-25T02:44:19;14.07;;;5.93;;
21215;SDS011;10765;50.954;5.322;2023-04-25T02:46:46;14.93;;;5.63;;
21215;SDS011;10765;50.954;5.322;2023-04-25T02:49:14;12.83;;;5.07;;
21215;SDS011;10765;50.954;5.322;2023-04-25T02:51:41;14.53;;;4.90;;
21215;SDS011;10765;50.954;5.322;2023-04-25T02:54:08;13.97;;;5.77;;
21215;SDS011;10765;50.954;5.322;2023-04-25T02:56:35;13.73;;;5.87;;
21215;SDS011;10765;50.954;5.322;2023-04-25T02:59:01;14.07;;;5.57;;
21215;SDS011;10765;50.954;5.322;2023-04-25T03:01:28;17.03;;;6.10;;
21215;SDS011;10765;50.954;5.322;2023-04-25T03:03:55;13.97;;;5.13;;
21215;SDS011;10765;50.954;5.322;2023-04-25T03:06:23;12.90;;;4.73;;
21215;SDS011;10765;50.954;5.322;2023-04-25T03:08:50;14.47;;;5.90;;
21215;SDS011;10765;50.954;5.322;2023-04-25T03:11:17;11.17;;;5.17;;
21215;SDS011;10765;50.954;5.322;2023-04-25T03:13:45;15.93;;;6.20;;
21215;SDS011;10765;50.954;5.322;2023-04-25T03:16:12;14.43;;;5.87;;
21215;SDS011;10765;50.954;5.322;2023-04-25T03:18:39;14.70;;;5.70;;
21215;SDS011;10765;50.954;5.322;2023-04-25T03:21:06;13.50;;;5.60;;
21215;SDS011;10765;50.954;5.322;2023-04-25T03:23:34;16.07;;;6.23;;
21215;SDS011;10765;50.954;5.322;2023-04-25T03:26:01;13.03;;;5.33;;
21215;SDS011;10765;50.954;5.322;2023-04-25T03:28:28;12.10;;;5.53;;
21215;SDS011;10765;50.954;5.322;2023-04-25T03:30:55;13.73;;;5.77;;
21215;SDS011;10765;50.954;5.322;2023-04-25T03:33:22;12.93;;;5.70;;
21215;SDS011;10765;50.954;5.322;2023-04-25T03:35:49;12.53;;;5.30;;
21215;SDS011;10765;50.954;5.322;2023-04-25T03:38:16;13.67;;;5.50;;
21215;SDS011;10765;50.954;5.322;2023-04-25T03:40:44;14.60;;;5.47;;
21215;SDS011;10765;50.954;5.322;2023-04-25T03:43:11;17.30;;;6.37;;
21215;SDS011;10765;50.954;5.322;2023-04-25T03:45:38;16.50;;;5.83;;
21215;SDS011;10765;50.954;5.322;2023-04-25T03:48:05;14.13;;;5.90;;
21215;SDS011;10765;50.954;5.322;2023-04-25T03:50:32;17.23;;;5.83;;
21215;SDS011;10765;50.954;5.322;2023-04-25T03:52:59;17.07;;;6.20;;
21215;SDS011;10765;50.954;5.322;2023-04-25T03:55:26;13.73;;;5.57;;
21215;SDS011;10765;50.954;5.322;2023-04-25T03:57:54;14.10;;;6.00;;
21215;SDS011;10765;50.954;5.322;2023-04-25T04:00:23;17.00;;;6.07;;
21215;SDS011;10765;50.954;5.322;2023-04-25T04:02:50;14.33;;;5.87;;
21215;SDS011;10765;50.954;5.322;2023-04-25T04:05:17;13.80;;;5.93;;
21215;SDS011;10765;50.954;5.322;2023-04-25T04:07:44;15.23;;;6.63;;
21215;SDS011;10765;50.954;5.322;2023-04-25T04:10:11;18.27;;;8.20;;
21215;SDS011;10765;50.954;5.322;2023-04-25T04:12:38;15.80;;;6.93;;
21215;SDS011;10765;50.954;5.322;2023-04-25T04:15:07;15.23;;;6.73;;
21215;SDS011;10765;50.954;5.322;2023-04-25T04:17:34;17.93;;;7.20;;
21215;SDS011;10765;50.954;5.322;2023-04-25T04:20:01;13.83;;;5.90;;
21215;SDS011;10765;50.954;5.322;2023-04-25T04:22:29;16.03;;;5.93;;
21215;SDS011;10765;50.954;5.322;2023-04-25T04:24:56;14.47;;;5.57;;
21215;SDS011;10765;50.954;5.322;2023-04-25T04:27:23;17.17;;;6.03;;
21215;SDS011;10765;50.954;5.322;2023-04-25T04:29:49;9.30;;;4.83;;
21215;SDS011;10765;50.954;5.322;2023-04-25T04:32:19;16.10;;;4.47;;
21215;SDS011;10765;50.954;5.322;2023-04-25T04:34:48;10.20;;;4.30;;
21215;SDS011;10765;50.954;5.322;2023-04-25T04:37:15;12.70;;;4.30;;
21215;SDS011;10765;50.954;5.322;2023-04-25T04:39:42;11.67;;;4.10;;
21215;SDS011;10765;50.954;5.322;2023-04-25T04:42:09;10.60;;;3.87;;
21215;SDS011;10765;50.954;5.322;2023-04-25T04:44:36;12.70;;;4.40;;
21215;SDS011;10765;50.954;5.322;2023-04-25T04:47:04;11.60;;;4.93;;
21215;SDS011;10765;50.954;5.322;2023-04-25T04:49:32;10.27;;;4.30;;
21215;SDS011;10765;50.954;5.322;2023-04-25T04:51:59;10.70;;;4.20;;
21215;SDS011;10765;50.954;5.322;2023-04-25T04:54:26;10.83;;;4.17;;
21215;SDS011;10765;50.954;5.322;2023-04-25T04:56:53;12.43;;;4.30;;
21215;SDS011;10765;50.954;5.322;2023-04-25T04:59:20;8.07;;;4.00;;
21215;SDS011;10765;50.954;5.322;2023-04-25T05:01:47;14.60;;;4.70;;
21215;SDS011;10765;50.954;5.322;2023-04-25T05:04:14;9.10;;;4.30;;
21215;SDS011;10765;50.954;5.322;2023-04-25T05:06:42;10.70;;;4.33;;
21215;SDS011;10765;50.954;5.322;2023-04-25T05:09:09;8.27;;;4.30;;
21215;SDS011;10765;50.954;5.322;2023-04-25T05:11:36;11.20;;;4.00;;
21215;SDS011;10765;50.954;5.322;2023-04-25T05:14:03;10.80;;;3.83;;
21215;SDS011;10765;50.954;5.322;2023-04-25T05:16:30;7.83;;;3.97;;
21215;SDS011;10765;50.954;5.322;2023-04-25T05:18:56;8.13;;;3.83;;
21215;SDS011;10765;50.954;5.322;2023-04-25T05:21:23;9.53;;;3.80;;
21215;SDS011;10765;50.954;5.322;2023-04-25T05:23:51;9.47;;;4.43;;
21215;SDS011;10765;50.954;5.322;2023-04-25T05:26:19;7.10;;;3.80;;
21215;SDS011;10765;50.954;5.322;2023-04-25T05:28:46;8.73;;;4.13;;
21215;SDS011;10765;50.954;5.322;2023-04-25T05:31:13;8.43;;;3.93;;
21215;SDS011;10765;50.954;5.322;2023-04-25T05:33:40;7.47;;;3.90;;
21215;SDS011;10765;50.954;5.322;2023-04-25T05:36:07;10.60;;;4.33;;
21215;SDS011;10765;50.954;5.322;2023-04-25T05:38:34;8.90;;;4.10;;
21215;SDS011;10765;50.954;5.322;2023-04-25T05:41:03;9.73;;;4.00;;
21215;SDS011;10765;50.954;5.322;2023-04-25T05:43:30;13.97;;;5.43;;
21215;SDS011;10765;50.954;5.322;2023-04-25T05:45:57;10.63;;;4.43;;
21215;SDS011;10765;50.954;5.322;2023-04-25T05:48:23;9.07;;;3.83;;
21215;SDS011;10765;50.954;5.322;2023-04-25T05:50:50;13.57;;;3.83;;
21215;SDS011;10765;50.954;5.322;2023-04-25T05:53:18;11.97;;;4.50;;
21215;SDS011;10765;50.954;5.322;2023-04-25T05:55:45;12.37;;;4.67;;
21215;SDS011;10765;50.954;5.322;2023-04-25T05:58:14;12.10;;;4.50;;
21215;SDS011;10765;50.954;5.322;2023-04-25T06:00:40;10.83;;;4.00;;
21215;SDS011;10765;50.954;5.322;2023-04-25T06:03:07;10.63;;;4.30;;
21215;SDS011;10765;50.954;5.322;2023-04-25T06:05:35;10.23;;;4.63;;
21215;SDS011;10765;50.954;5.322;2023-04-25T06:08:02;12.03;;;4.47;;
21215;SDS011;10765;50.954;5.322;2023-04-25T06:10:29;11.80;;;4.30;;
21215;SDS011;10765;50.954;5.322;2023-04-25T06:12:56;11.07;;;4.37;;
21215;SDS011;10765;50.954;5.322;2023-04-25T06:15:24;11.10;;;4.70;;
21215;SDS011;10765;50.954;5.322;2023-04-25T06:17:51;11.13;;;4.70;;
21215;SDS011;10765;50.954;5.322;2023-04-25T06:20:18;12.67;;;4.90;;
21215;SDS011;10765;50.954;5.322;2023-04-25T06:22:48;12.37;;;4.60;;
21215;SDS011;10765;50.954;5.322;2023-04-25T06:25:15;14.23;;;5.03;;
21215;SDS011;10765;50.954;5.322;2023-04-25T06:27:41;10.80;;;5.00;;
21215;SDS011;10765;50.954;5.322;2023-04-25T06:30:09;14.80;;;5.47;;
21215;SDS011;10765;50.954;5.322;2023-04-25T06:32:38;14.60;;;5.53;;
21215;SDS011;10765;50.954;5.322;2023-04-25T06:35:05;17.27;;;5.83;;
21215;SDS011;10765;50.954;5.322;2023-04-25T06:37:33;15.37;;;6.07;;
21215;SDS011;10765;50.954;5.322;2023-04-25T06:40:00;15.67;;;5.53;;
21215;SDS011;10765;50.954;5.322;2023-04-25T06:42:27;16.03;;;6.83;;
21215;SDS011;10765;50.954;5.322;2023-04-25T06:44:54;13.07;;;6.67;;
21215;SDS011;10765;50.954;5.322;2023-04-25T06:47:21;17.43;;;6.73;;
21215;SDS011;10765;50.954;5.322;2023-04-25T06:49:49;14.50;;;6.50;;
21215;SDS011;10765;50.954;5.322;2023-04-25T06:52:16;12.07;;;6.17;;
21215;SDS011;10765;50.954;5.322;2023-04-25T06:54:44;16.50;;;6.07;;
21215;SDS011;10765;50.954;5.322;2023-04-25T06:57:11;15.13;;;5.43;;
21215;SDS011;10765;50.954;5.322;2023-04-25T06:59:37;14.47;;;5.67;;
21215;SDS011;10765;50.954;5.322;2023-04-25T07:02:05;16.03;;;5.60;;
21215;SDS011;10765;50.954;5.322;2023-04-25T07:04:32;16.30;;;5.17;;
21215;SDS011;10765;50.954;5.322;2023-04-25T07:07:00;11.33;;;5.87;;
21215;SDS011;10765;50.954;5.322;2023-04-25T07:09:28;20.13;;;6.67;;
21215;SDS011;10765;50.954;5.322;2023-04-25T07:11:58;16.33;;;7.23;;
21215;SDS011;10765;50.954;5.322;2023-04-25T07:14:26;14.67;;;6.50;;
21215;SDS011;10765;50.954;5.322;2023-04-25T07:16:53;15.90;;;7.03;;
21215;SDS011;10765;50.954;5.322;2023-04-25T07:19:20;13.40;;;5.53;;
21215;SDS011;10765;50.954;5.322;2023-04-25T07:21:48;13.23;;;5.67;;
21215;SDS011;10765;50.954;5.322;2023-04-25T07:24:17;18.83;;;5.37;;
21215;SDS011;10765;50.954;5.322;2023-04-25T07:26:44;13.57;;;6.13;;
21215;SDS011;10765;50.954;5.322;2023-04-25T07:29:11;14.80;;;5.07;;
21215;SDS011;10765;50.954;5.322;2023-04-25T07:31:38;8.03;;;4.43;;
21215;SDS011;10765;50.954;5.322;2023-04-25T07:34:05;8.40;;;4.33;;
21215;SDS011;10765;50.954;5.322;2023-04-25T07:36:32;9.03;;;4.00;;
21215;SDS011;10765;50.954;5.322;2023-04-25T07:38:59;5.47;;;3.50;;
21215;SDS011;10765;50.954;5.322;2023-04-25T07:41:27;8.90;;;3.50;;
21215;SDS011;10765;50.954;5.322;2023-04-25T07:43:54;11.30;;;3.30;;
21215;SDS011;10765;50.954;5.322;2023-04-25T07:46:21;10.77;;;3.20;;
21215;SDS011;10765;50.954;5.322;2023-04-25T07:48:47;9.93;;;3.40;;
21215;SDS011;10765;50.954;5.322;2023-04-25T07:51:14;9.70;;;3.27;;
21215;SDS011;10765;50.954;5.322;2023-04-25T07:53:41;10.23;;;3.30;;
21215;SDS011;10765;50.954;5.322;2023-04-25T07:56:08;10.30;;;3.53;;
21215;SDS011;10765;50.954;5.322;2023-04-25T07:58:37;9.03;;;2.40;;
21215;SDS011;10765;50.954;5.322;2023-04-25T08:01:03;7.03;;;3.10;;
21215;SDS011;10765;50.954;5.322;2023-04-25T08:03:30;7.17;;;2.83;;
21215;SDS011;10765;50.954;5.322;2023-04-25T08:05:57;7.60;;;2.60;;
21215;SDS011;10765;50.954;5.322;2023-04-25T08:08:24;7.30;;;2.70;;
21215;SDS011;10765;50.954;5.322;2023-04-25T08:10:51;10.23;;;2.83;;
21215;SDS011;10765;50.954;5.322;2023-04-25T08:13:18;8.40;;;2.73;;
21215;SDS011;10765;50.954;5.322;2023-04-25T08:15:46;8.23;;;2.63;;
21215;SDS011;10765;50.954;5.322;2023-04-25T08:18:13;4.63;;;2.17;;
21215;SDS011;10765;50.954;5.322;2023-04-25T08:20:40;6.27;;;2.03;;
21215;SDS011;10765;50.954;5.322;2023-04-25T08:23:07;7.00;;;2.20;;
21215;SDS011;10765;50.954;5.322;2023-04-25T08:25:35;7.07;;;2.40;;
21215;SDS011;10765;50.954;5.322;2023-04-25T08:28:02;7.70;;;2.40;;
21215;SDS011;10765;50.954;5.322;2023-04-25T08:30:29;5.63;;;2.20;;
21215;SDS011;10765;50.954;5.322;2023-04-25T08:32:57;8.93;;;2.70;;
21215;SDS011;10765;50.954;5.322;2023-04-25T08:35:24;8.17;;;2.47;;
21215;SDS011;10765;50.954;5.322;2023-04-25T08:37:51;7.37;;;2.23;;
21215;SDS011;10765;50.954;5.322;2023-04-25T08:40:18;5.90;;;2.47;;
21215;SDS011;10765;50.954;5.322;2023-04-25T08:42:51;8.97;;;2.67;;
21215;SDS011;10765;50.954;5.322;2023-04-25T08:45:19;5.57;;;2.13;;
21215;SDS011;10765;50.954;5.322;2023-04-25T08:47:47;5.03;;;2.40;;
21215;SDS011;10765;50.954;5.322;2023-04-25T08:50:19;6.20;;;2.33;;
21215;SDS011;10765;50.954;5.322;2023-04-25T08:52:47;9.20;;;2.83;;
21215;SDS011;10765;50.954;5.322;2023-04-25T08:55:17;7.43;;;3.23;;
21215;SDS011;10765;50.954;5.322;2023-04-25T08:57:46;8.43;;;3.40;;
21215;SDS011;10765;50.954;5.322;2023-04-25T09:00:14;10.53;;;3.43;;
21215;SDS011;10765;50.954;5.322;2023-04-25T09:02:41;8.57;;;3.73;;
21215;SDS011;10765;50.954;5.322;2023-04-25T09:05:09;10.20;;;3.87;;
21215;SDS011;10765;50.954;5.322;2023-04-25T09:07:40;7.13;;;3.50;;
21215;SDS011;10765;50.954;5.322;2023-04-25T09:10:07;9.23;;;4.10;;
21215;SDS011;10765;50.954;5.322;2023-04-25T09:12:35;11.17;;;5.00;;
21215;SDS011;10765;50.954;5.322;2023-04-25T09:15:03;9.43;;;4.60;;
21215;SDS011;10765;50.954;5.322;2023-04-25T09:17:32;11.50;;;4.43;;
21215;SDS011;10765;50.954;5.322;2023-04-25T09:20:05;10.23;;;4.17;;
21215;SDS011;10765;50.954;5.322;2023-04-25T09:22:34;7.83;;;3.60;;
21215;SDS011;10765;50.954;5.322;2023-04-25T09:25:03;7.63;;;3.57;;
21215;SDS011;10765;50.954;5.322;2023-04-25T09:27:34;10.97;;;3.60;;
21215;SDS011;10765;50.954;5.322;2023-04-25T09:30:01;8.63;;;3.23;;
21215;SDS011;10765;50.954;5.322;2023-04-25T09:32:28;7.53;;;3.10;;
21215;SDS011;10765;50.954;5.322;2023-04-25T09:34:56;5.13;;;2.47;;
21215;SDS011;10765;50.954;5.322;2023-04-25T09:37:24;7.53;;;2.13;;
21215;SDS011;10765;50.954;5.322;2023-04-25T09:39:53;5.97;;;2.33;;
21215;SDS011;10765;50.954;5.322;2023-04-25T09:42:23;5.87;;;2.50;;
21215;SDS011;10765;50.954;5.322;2023-04-25T09:44:51;5.60;;;2.90;;
21215;SDS011;10765;50.954;5.322;2023-04-25T09:47:19;5.50;;;2.30;;
21215;SDS011;10765;50.954;5.322;2023-04-25T09:49:48;7.90;;;3.03;;
21215;SDS011;10765;50.954;5.322;2023-04-25T09:52:16;8.67;;;3.00;;
21215;SDS011;10765;50.954;5.322;2023-04-25T09:54:45;5.60;;;2.30;;
21215;SDS011;10765;50.954;5.322;2023-04-25T09:57:14;7.43;;;2.30;;
21215;SDS011;10765;50.954;5.322;2023-04-25T09:59:47;5.30;;;2.20;;
21215;SDS011;10765;50.954;5.322;2023-04-25T10:02:15;5.13;;;1.90;;
21215;SDS011;10765;50.954;5.322;2023-04-25T10:04:44;6.63;;;2.30;;
21215;SDS011;10765;50.954;5.322;2023-04-25T10:07:14;7.03;;;2.13;;
21215;SDS011;10765;50.954;5.322;2023-04-25T10:09:41;7.67;;;2.40;;
21215;SDS011;10765;50.954;5.322;2023-04-25T10:12:10;5.13;;;2.07;;
21215;SDS011;10765;50.954;5.322;2023-04-25T10:14:38;7.23;;;2.30;;
21215;SDS011;10765;50.954;5.322;2023-04-25T10:17:08;7.20;;;2.40;;
21215;SDS011;10765;50.954;5.322;2023-04-25T10:19:37;6.10;;;2.27;;
21215;SDS011;10765;50.954;5.322;2023-04-25T10:22:06;5.00;;;2.07;;
21215;SDS011;10765;50.954;5.322;2023-04-25T10:24:34;7.73;;;2.43;;
21215;SDS011;10765;50.954;5.322;2023-04-25T10:27:02;6.43;;;2.50;;
21215;SDS011;10765;50.954;5.322;2023-04-25T10:29:30;6.20;;;1.93;;
21215;SDS011;10765;50.954;5.322;2023-04-25T10:31:57;6.07;;;2.17;;
21215;SDS011;10765;50.954;5.322;2023-04-25T10:34:37;4.40;;;1.80;;
21215;SDS011;10765;50.954;5.322;2023-04-25T10:37:05;5.00;;;1.50;;
21215;SDS011;10765;50.954;5.322;2023-04-25T10:39:37;6.10;;;1.90;;
21215;SDS011;10765;50.954;5.322;2023-04-25T10:42:05;5.70;;;1.53;;
21215;SDS011;10765;50.954;5.322;2023-04-25T10:44:32;6.03;;;1.87;;
21215;SDS011;10765;50.954;5.322;2023-04-25T10:47:00;6.60;;;1.60;;
21215;SDS011;10765;50.954;5.322;2023-04-25T10:49:30;3.27;;;1.20;;
21215;SDS011;10765;50.954;5.322;2023-04-25T10:52:14;4.03;;;1.40;;
21215;SDS011;10765;50.954;5.322;2023-04-25T10:54:43;2.33;;;1.10;;
21215;SDS011;10765;50.954;5.322;2023-04-25T10:57:28;3.77;;;1.20;;
21215;SDS011;10765;50.954;5.322;2023-04-25T11:00:00;4.13;;;1.43;;
21215;SDS011;10765;50.954;5.322;2023-04-25T11:02:31;4.03;;;1.10;;
21215;SDS011;10765;50.954;5.322;2023-04-25T11:05:00;2.17;;;0.90;;
21215;SDS011;10765;50.954;5.322;2023-04-25T11:07:30;3.47;;;1.30;;
21215;SDS011;10765;50.954;5.322;2023-04-25T11:10:03;3.33;;;1.40;;
21215;SDS011;10765;50.954;5.322;2023-04-25T11:12:31;3.20;;;1.10;;
21215;SDS011;10765;50.954;5.322;2023-04-25T11:14:59;4.90;;;1.50;;
21215;SDS011;10765;50.954;5.322;2023-04-25T11:17:27;2.37;;;1.10;;
21215;SDS011;10765;50.954;5.322;2023-04-25T11:19:55;3.87;;;1.40;;
21215;SDS011;10765;50.954;5.322;2023-04-25T11:22:23;4.23;;;1.30;;
21215;SDS011;10765;50.954;5.322;2023-04-25T11:24:50;5.37;;;1.20;;
21215;SDS011;10765;50.954;5.322;2023-04-25T11:27:17;5.90;;;1.60;;
21215;SDS011;10765;50.954;5.322;2023-04-25T11:29:44;3.43;;;1.30;;
21215;SDS011;10765;50.954;5.322;2023-04-25T11:32:13;2.73;;;1.30;;
21215;SDS011;10765;50.954;5.322;2023-04-25T11:34:42;3.37;;;1.30;;
21215;SDS011;10765;50.954;5.322;2023-04-25T11:37:10;4.97;;;2.10;;
21215;SDS011;10765;50.954;5.322;2023-04-25T11:39:39;3.03;;;1.50;;
21215;SDS011;10765;50.954;5.322;2023-04-25T11:42:11;4.37;;;1.73;;
21215;SDS011;10765;50.954;5.322;2023-04-25T11:44:38;4.07;;;1.57;;
21215;SDS011;10765;50.954;5.322;2023-04-25T11:47:05;4.20;;;1.50;;
21215;SDS011;10765;50.954;5.322;2023-04-25T11:49:32;3.90;;;1.60;;
21215;SDS011;10765;50.954;5.322;2023-04-25T11:52:00;4.13;;;1.53;;
21215;SDS011;10765;50.954;5.322;2023-04-25T11:54:27;3.90;;;1.70;;
21215;SDS011;10765;50.954;5.322;2023-04-25T11:56:56;3.97;;;1.60;;
21215;SDS011;10765;50.954;5.322;2023-04-25T11:59:23;5.60;;;1.70;;
21215;SDS011;10765;50.954;5.322;2023-04-25T12:01:51;3.17;;;1.70;;
21215;SDS011;10765;50.954;5.322;2023-04-25T12:04:19;4.70;;;1.33;;
21215;SDS011;10765;50.954;5.322;2023-04-25T12:06:48;4.37;;;1.67;;
21215;SDS011;10765;50.954;5.322;2023-04-25T12:09:16;2.20;;;1.20;;
21215;SDS011;10765;50.954;5.322;2023-04-25T12:11:45;3.83;;;1.60;;
21215;SDS011;10765;50.954;5.322;2023-04-25T12:14:20;4.23;;;1.63;;
21215;SDS011;10765;50.954;5.322;2023-04-25T12:16:49;4.47;;;1.40;;
21215;SDS011;10765;50.954;5.322;2023-04-25T12:19:17;3.47;;;1.63;;
21215;SDS011;10765;50.954;5.322;2023-04-25T12:21:46;4.03;;;1.77;;
21215;SDS011;10765;50.954;5.322;2023-04-25T12:24:13;4.73;;;1.97;;
21215;SDS011;10765;50.954;5.322;2023-04-25T12:26:49;5.53;;;1.80;;
21215;SDS011;10765;50.954;5.322;2023-04-25T12:29:19;4.80;;;1.43;;
21215;SDS011;10765;50.954;5.322;2023-04-25T12:31:48;2.00;;;1.50;;
21215;SDS011;10765;50.954;5.322;2023-04-25T12:34:16;5.37;;;1.73;;
21215;SDS011;10765;50.954;5.322;2023-04-25T12:36:43;3.63;;;1.60;;
21215;SDS011;10765;50.954;5.322;2023-04-25T12:39:14;6.53;;;1.70;;
21215;SDS011;10765;50.954;5.322;2023-04-25T12:41:41;3.93;;;1.60;;
21215;SDS011;10765;50.954;5.322;2023-04-25T12:44:08;4.80;;;1.87;;
21215;SDS011;10765;50.954;5.322;2023-04-25T12:46:37;5.20;;;1.80;;
21215;SDS011;10765;50.954;5.322;2023-04-25T12:49:04;4.17;;;1.70;;
21215;SDS011;10765;50.954;5.322;2023-04-25T12:51:32;4.27;;;1.70;;
21215;SDS011;10765;50.954;5.322;2023-04-25T12:53:59;5.47;;;2.00;;
21215;SDS011;10765;50.954;5.322;2023-04-25T12:56:27;5.40;;;1.70;;
21215;SDS011;10765;50.954;5.322;2023-04-25T12:58:54;3.27;;;1.40;;
21215;SDS011;10765;50.954;5.322;2023-04-25T13:01:21;2.90;;;1.20;;
21215;SDS011;10765;50.954;5.322;2023-04-25T13:03:49;4.03;;;1.70;;
21215;SDS011;10765;50.954;5.322;2023-04-25T13:06:17;2.30;;;1.20;;
21215;SDS011;10765;50.954;5.322;2023-04-25T13:08:45;3.70;;;1.53;;
21215;SDS011;10765;50.954;5.322;2023-04-25T13:11:12;3.33;;;1.40;;
21215;SDS011;10765;50.954;5.322;2023-04-25T13:13:39;2.73;;;1.27;;
21215;SDS011;10765;50.954;5.322;2023-04-25T13:16:07;4.77;;;1.73;;
21215;SDS011;10765;50.954;5.322;2023-04-25T13:18:34;2.83;;;1.40;;
21215;SDS011;10765;50.954;5.322;2023-04-25T13:21:03;6.73;;;1.77;;
21215;SDS011;10765;50.954;5.322;2023-04-25T13:23:30;4.70;;;1.80;;
21215;SDS011;10765;50.954;5.322;2023-04-25T13:25:57;6.97;;;2.13;;
21215;SDS011;10765;50.954;5.322;2023-04-25T13:28:26;6.47;;;1.87;;
21215;SDS011;10765;50.954;5.322;2023-04-25T13:30:53;5.83;;;2.10;;
21215;SDS011;10765;50.954;5.322;2023-04-25T13:33:20;6.17;;;2.23;;
21215;SDS011;10765;50.954;5.322;2023-04-25T13:35:47;5.80;;;1.70;;
21215;SDS011;10765;50.954;5.322;2023-04-25T13:38:20;5.10;;;2.47;;
21215;SDS011;10765;50.954;5.322;2023-04-25T13:40:48;5.50;;;1.90;;
21215;SDS011;10765;50.954;5.322;2023-04-25T13:43:18;6.53;;;1.90;;
21215;SDS011;10765;50.954;5.322;2023-04-25T13:45:46;5.17;;;1.70;;
21215;SDS011;10765;50.954;5.322;2023-04-25T13:48:12;5.87;;;1.67;;
21215;SDS011;10765;50.954;5.322;2023-04-25T13:50:39;5.40;;;1.90;;
21215;SDS011;10765;50.954;5.322;2023-04-25T13:53:06;6.57;;;1.90;;
21215;SDS011;10765;50.954;5.322;2023-04-25T13:55:35;2.90;;;1.53;;
21215;SDS011;10765;50.954;5.322;2023-04-25T13:58:02;3.10;;;1.40;;
21215;SDS011;10765;50.954;5.322;2023-04-25T14:00:33;2.97;;;1.83;;
21215;SDS011;10765;50.954;5.322;2023-04-25T14:03:02;6.17;;;2.17;;
21215;SDS011;10765;50.954;5.322;2023-04-25T14:05:32;5.63;;;1.57;;
21215;SDS011;10765;50.954;5.322;2023-04-25T14:08:03;4.07;;;1.33;;
21215;SDS011;10765;50.954;5.322;2023-04-25T14:10:30;4.40;;;1.60;;
21215;SDS011;10765;50.954;5.322;2023-04-25T14:12:59;4.13;;;1.43;;
21215;SDS011;10765;50.954;5.322;2023-04-25T14:15:28;4.33;;;1.33;;
21215;SDS011;10765;50.954;5.322;2023-04-25T14:17:55;2.90;;;1.30;;
21215;SDS011;10765;50.954;5.322;2023-04-25T14:20:22;3.83;;;1.53;;
21215;SDS011;10765;50.954;5.322;2023-04-25T14:22:49;7.43;;;2.20;;
21215;SDS011;10765;50.954;5.322;2023-04-25T14:25:17;6.77;;;3.30;;
21215;SDS011;10765;50.954;5.322;2023-04-25T14:27:44;2.97;;;1.40;;
21215;SDS011;10765;50.954;5.322;2023-04-25T14:30:16;2.60;;;1.23;;
21215;SDS011;10765;50.954;5.322;2023-04-25T14:32:43;6.17;;;1.77;;
21215;SDS011;10765;50.954;5.322;2023-04-25T14:35:10;2.90;;;1.27;;
21215;SDS011;10765;50.954;5.322;2023-04-25T14:37:37;3.03;;;1.33;;
21215;SDS011;10765;50.954;5.322;2023-04-25T14:40:04;4.10;;;1.70;;
21215;SDS011;10765;50.954;5.322;2023-04-25T14:42:33;6.80;;;1.40;;
21215;SDS011;10765;50.954;5.322;2023-04-25T14:45:00;3.33;;;1.37;;